• Join FlightAware (Why Join?)
  • Login
  • US Flag 
02:21AM EDT


 

Airport Tracker/Info


-or-


 

Live Flight TrackerFlight Track Log ✈ N34896 ✈ 24-Jul-2013 ✈ S24 - KBJJ

Flight Track Log - Related Links

Times and Time Zones

All times are in EDT time to prevent confusion due to time zone crossing. See the N34896 flight status page for this flight to view local times or setup timezone preferences in your user account.

Time Position Orientation Groundspeed Altitude Reporting Facility
EDT Latitude Longitude Course Direction KTS MPH feet Rate Location/Type
02:41PM 41.2400 -82.8822 114° Southeast  Level Estimated
02:42PM 41.2308 -82.8564 115° Southeast  Level FlightAware Approximate
02:43PM 41.2216 -82.8305 115° Southeast  Level FlightAware Approximate
02:44PM 41.2122 -82.8047 114° Southeast  Level Estimated
02:45PM 41.2038 -82.7784 113° Southeast  Level FlightAware Approximate
02:46PM 41.1944 -82.7526 118° Southeast  Level Estimated
02:47PM 41.1844 -82.7273 118° Southeast  Level FlightAware Approximate
02:48PM 41.1743 -82.7021 118° Southeast  Level FlightAware Approximate
02:49PM 41.1642 -82.6768 118° Southeast  Level FlightAware Approximate
02:50PM 41.1542 -82.6515 118° Southeast  Level FlightAware Approximate
02:51PM 41.1441 -82.6263 118° Southeast  Level FlightAware Approximate
02:52PM 41.1340 -82.6010 118° Southeast  Level FlightAware Approximate
02:53PM 41.1239 -82.5758 118° Southeast  Level FlightAware Approximate
02:54PM 41.1138 -82.5505 118° Southeast  Level FlightAware Approximate
02:55PM 41.1037 -82.5253 118° Southeast  Level FlightAware Approximate
02:56PM 41.0936 -82.5001 118° Southeast  Level FlightAware Approximate
02:57PM 41.0835 -82.4749 118° Southeast  Level FlightAware Approximate
02:58PM 41.0734 -82.4496 118° Southeast  Level FlightAware Approximate
02:59PM 41.0633 -82.4244 118° Southeast  Level FlightAware Approximate
03:00PM 41.0532 -82.3992 118° Southeast  Level FlightAware Approximate
03:01PM 41.0430 -82.3741 118° Southeast  Level FlightAware Approximate
03:02PM 41.0341 -82.3481 115° Southeast  Level Estimated
03:03PM 41.0248 -82.3224 116° Southeast  Level FlightAware Approximate
03:04PM 41.0155 -82.2967 116° Southeast  Level FlightAware Approximate
03:05PM 41.0061 -82.2709 116° Southeast  Level FlightAware Approximate
03:06PM 40.9968 -82.2452 116° Southeast  Level FlightAware Approximate
03:07PM 40.9875 -82.2195 116° Southeast  Level FlightAware Approximate
03:08PM 40.9781 -82.1938 116° Southeast  Level FlightAware Approximate
03:09PM 40.9688 -82.1682 116° Southeast  Level FlightAware Approximate
03:10PM 40.9594 -82.1425 116° Southeast  Level FlightAware Approximate
03:11PM 40.9508 -82.1164 118° Southeast  Level Estimated
03:12PM 40.9405 -82.0913 118° Southeast  Level FlightAware Approximate
03:13PM 40.9302 -82.0663 119° Southeast  Level FlightAware Approximate
03:14PM 40.9221 -82.0399 108° East  Level Estimated
03:15PM 40.9147 -82.0132 110° East  Level FlightAware Approximate
03:16PM 40.9073 -81.9864 110° East  Level FlightAware Approximate
03:17PM 40.8999 -81.9597 110° East  Level FlightAware Approximate
03:18PM 40.8925 -81.9330 110° East  Level FlightAware Approximate
03:19PM 40.8816 -81.8983 143° Southeast  Level FlightAware Approximate